sensor_id;sensor_type;location;lat;lon;timestamp;P1;durP1;ratioP1;P2;durP2;ratioP2
74342;SDS011;62767;50.300;8.070;2024-02-28T00:02:21;4.20;;;2.28;;
74342;SDS011;62767;50.300;8.070;2024-02-28T00:04:46;4.40;;;2.25;;
74342;SDS011;62767;50.300;8.070;2024-02-28T00:07:12;4.60;;;2.20;;
74342;SDS011;62767;50.300;8.070;2024-02-28T00:09:37;4.72;;;2.13;;
74342;SDS011;62767;50.300;8.070;2024-02-28T00:12:03;3.63;;;2.00;;
74342;SDS011;62767;50.300;8.070;2024-02-28T00:14:28;3.67;;;2.08;;
74342;SDS011;62767;50.300;8.070;2024-02-28T00:16:54;4.00;;;2.10;;
74342;SDS011;62767;50.300;8.070;2024-02-28T00:19:20;3.13;;;1.85;;
74342;SDS011;62767;50.300;8.070;2024-02-28T00:21:46;3.90;;;2.03;;
74342;SDS011;62767;50.300;8.070;2024-02-28T00:24:11;3.72;;;2.10;;
74342;SDS011;62767;50.300;8.070;2024-02-28T00:26:41;3.75;;;1.95;;
74342;SDS011;62767;50.300;8.070;2024-02-28T00:29:08;3.65;;;2.00;;
74342;SDS011;62767;50.300;8.070;2024-02-28T00:31:34;3.70;;;1.80;;
74342;SDS011;62767;50.300;8.070;2024-02-28T00:33:59;3.78;;;1.95;;
74342;SDS011;62767;50.300;8.070;2024-02-28T00:36:25;3.72;;;1.95;;
74342;SDS011;62767;50.300;8.070;2024-02-28T00:38:50;3.92;;;1.90;;
74342;SDS011;62767;50.300;8.070;2024-02-28T00:41:16;3.22;;;2.20;;
74342;SDS011;62767;50.300;8.070;2024-02-28T00:43:41;3.30;;;1.80;;
74342;SDS011;62767;50.300;8.070;2024-02-28T00:46:07;3.22;;;1.73;;
74342;SDS011;62767;50.300;8.070;2024-02-28T00:48:36;3.95;;;2.20;;
74342;SDS011;62767;50.300;8.070;2024-02-28T00:51:02;3.30;;;1.90;;
74342;SDS011;62767;50.300;8.070;2024-02-28T00:53:28;2.95;;;1.70;;
74342;SDS011;62767;50.300;8.070;2024-02-28T00:55:54;3.75;;;1.98;;
74342;SDS011;62767;50.300;8.070;2024-02-28T00:58:20;3.78;;;2.03;;
74342;SDS011;62767;50.300;8.070;2024-02-28T01:00:47;3.08;;;1.98;;
74342;SDS011;62767;50.300;8.070;2024-02-28T01:03:13;3.78;;;2.15;;
74342;SDS011;62767;50.300;8.070;2024-02-28T01:05:40;3.83;;;2.00;;
74342;SDS011;62767;50.300;8.070;2024-02-28T01:08:06;4.18;;;2.08;;
74342;SDS011;62767;50.300;8.070;2024-02-28T01:10:33;3.20;;;1.80;;
74342;SDS011;62767;50.300;8.070;2024-02-28T01:12:59;3.70;;;2.00;;
74342;SDS011;62767;50.300;8.070;2024-02-28T01:15:24;3.53;;;1.77;;
74342;SDS011;62767;50.300;8.070;2024-02-28T01:17:50;6.32;;;1.67;;
74342;SDS011;62767;50.300;8.070;2024-02-28T01:20:16;3.47;;;2.28;;
74342;SDS011;62767;50.300;8.070;2024-02-28T01:22:41;3.72;;;2.13;;
74342;SDS011;62767;50.300;8.070;2024-02-28T01:25:07;3.03;;;1.90;;
74342;SDS011;62767;50.300;8.070;2024-02-28T01:27:33;3.28;;;1.80;;
74342;SDS011;62767;50.300;8.070;2024-02-28T01:29:58;3.45;;;1.92;;
74342;SDS011;62767;50.300;8.070;2024-02-28T01:32:24;3.25;;;1.90;;
74342;SDS011;62767;50.300;8.070;2024-02-28T01:34:49;3.45;;;2.10;;
74342;SDS011;62767;50.300;8.070;2024-02-28T01:37:15;3.42;;;1.90;;
74342;SDS011;62767;50.300;8.070;2024-02-28T01:39:40;3.35;;;1.95;;
74342;SDS011;62767;50.300;8.070;2024-02-28T01:42:05;2.97;;;2.03;;
74342;SDS011;62767;50.300;8.070;2024-02-28T01:44:31;3.13;;;1.73;;
74342;SDS011;62767;50.300;8.070;2024-02-28T01:47:03;3.15;;;1.83;;
74342;SDS011;62767;50.300;8.070;2024-02-28T01:49:29;3.55;;;1.95;;
74342;SDS011;62767;50.300;8.070;2024-02-28T01:51:54;3.08;;;1.70;;
74342;SDS011;62767;50.300;8.070;2024-02-28T01:54:21;3.17;;;1.80;;
74342;SDS011;62767;50.300;8.070;2024-02-28T01:56:48;2.92;;;1.73;;
74342;SDS011;62767;50.300;8.070;2024-02-28T01:59:14;2.53;;;1.67;;
74342;SDS011;62767;50.300;8.070;2024-02-28T02:01:41;3.15;;;1.67;;
74342;SDS011;62767;50.300;8.070;2024-02-28T02:04:07;3.25;;;1.80;;
74342;SDS011;62767;50.300;8.070;2024-02-28T02:06:33;2.72;;;1.60;;
74342;SDS011;62767;50.300;8.070;2024-02-28T02:09:04;2.10;;;1.40;;
74342;SDS011;62767;50.300;8.070;2024-02-28T02:11:29;3.40;;;1.75;;
74342;SDS011;62767;50.300;8.070;2024-02-28T02:13:55;2.58;;;1.60;;
74342;SDS011;62767;50.300;8.070;2024-02-28T02:16:20;3.22;;;1.75;;
74342;SDS011;62767;50.300;8.070;2024-02-28T02:18:51;2.95;;;1.70;;
74342;SDS011;62767;50.300;8.070;2024-02-28T02:21:22;3.72;;;1.65;;
74342;SDS011;62767;50.300;8.070;2024-02-28T02:23:49;2.83;;;1.63;;
74342;SDS011;62767;50.300;8.070;2024-02-28T02:26:15;3.58;;;1.95;;
74342;SDS011;62767;50.300;8.070;2024-02-28T02:28:40;3.42;;;1.80;;
74342;SDS011;62767;50.300;8.070;2024-02-28T02:31:06;3.75;;;1.90;;
74342;SDS011;62767;50.300;8.070;2024-02-28T02:33:31;2.53;;;1.60;;
74342;SDS011;62767;50.300;8.070;2024-02-28T02:35:57;3.00;;;1.45;;
74342;SDS011;62767;50.300;8.070;2024-02-28T02:38:23;2.78;;;1.75;;
74342;SDS011;62767;50.300;8.070;2024-02-28T02:40:49;2.53;;;1.70;;
74342;SDS011;62767;50.300;8.070;2024-02-28T02:43:15;2.92;;;1.73;;
74342;SDS011;62767;50.300;8.070;2024-02-28T02:45:41;3.10;;;1.60;;
74342;SDS011;62767;50.300;8.070;2024-02-28T02:48:06;2.45;;;1.40;;
74342;SDS011;62767;50.300;8.070;2024-02-28T02:50:32;2.55;;;1.52;;
74342;SDS011;62767;50.300;8.070;2024-02-28T02:52:57;2.60;;;1.42;;
74342;SDS011;62767;50.300;8.070;2024-02-28T02:55:23;3.53;;;1.70;;
74342;SDS011;62767;50.300;8.070;2024-02-28T02:57:48;2.47;;;1.70;;
74342;SDS011;62767;50.300;8.070;2024-02-28T03:00:14;3.28;;;1.60;;
74342;SDS011;62767;50.300;8.070;2024-02-28T03:02:39;2.53;;;1.30;;
74342;SDS011;62767;50.300;8.070;2024-02-28T03:05:05;2.70;;;1.67;;
74342;SDS011;62767;50.300;8.070;2024-02-28T03:07:31;2.42;;;1.40;;
74342;SDS011;62767;50.300;8.070;2024-02-28T03:09:57;2.65;;;1.55;;
74342;SDS011;62767;50.300;8.070;2024-02-28T03:12:23;2.72;;;1.45;;
74342;SDS011;62767;50.300;8.070;2024-02-28T03:14:49;1.85;;;1.45;;
74342;SDS011;62767;50.300;8.070;2024-02-28T03:17:14;2.50;;;1.52;;
74342;SDS011;62767;50.300;8.070;2024-02-28T03:19:42;2.55;;;1.52;;
74342;SDS011;62767;50.300;8.070;2024-02-28T03:22:08;2.33;;;1.50;;
74342;SDS011;62767;50.300;8.070;2024-02-28T03:24:33;2.20;;;1.48;;
74342;SDS011;62767;50.300;8.070;2024-02-28T03:27:02;2.53;;;1.52;;
74342;SDS011;62767;50.300;8.070;2024-02-28T03:29:28;2.45;;;1.50;;
74342;SDS011;62767;50.300;8.070;2024-02-28T03:31:53;2.10;;;1.35;;
74342;SDS011;62767;50.300;8.070;2024-02-28T03:34:19;2.42;;;1.48;;
74342;SDS011;62767;50.300;8.070;2024-02-28T03:36:45;2.22;;;1.30;;
74342;SDS011;62767;50.300;8.070;2024-02-28T03:39:11;2.30;;;1.50;;
74342;SDS011;62767;50.300;8.070;2024-02-28T03:41:36;2.97;;;1.52;;
74342;SDS011;62767;50.300;8.070;2024-02-28T03:44:03;2.25;;;1.50;;
74342;SDS011;62767;50.300;8.070;2024-02-28T03:46:29;2.28;;;1.35;;
74342;SDS011;62767;50.300;8.070;2024-02-28T03:48:55;2.60;;;1.65;;
74342;SDS011;62767;50.300;8.070;2024-02-28T03:51:20;2.40;;;1.50;;
74342;SDS011;62767;50.300;8.070;2024-02-28T03:53:46;1.70;;;1.27;;
74342;SDS011;62767;50.300;8.070;2024-02-28T03:56:11;1.77;;;1.23;;
74342;SDS011;62767;50.300;8.070;2024-02-28T03:58:37;2.95;;;1.85;;
74342;SDS011;62767;50.300;8.070;2024-02-28T04:01:02;2.13;;;1.35;;
74342;SDS011;62767;50.300;8.070;2024-02-28T04:03:28;2.20;;;1.35;;
74342;SDS011;62767;50.300;8.070;2024-02-28T04:05:54;1.85;;;1.30;;
74342;SDS011;62767;50.300;8.070;2024-02-28T04:08:20;2.72;;;1.50;;
74342;SDS011;62767;50.300;8.070;2024-02-28T04:10:45;2.50;;;1.40;;
74342;SDS011;62767;50.300;8.070;2024-02-28T04:13:11;2.22;;;1.35;;
74342;SDS011;62767;50.300;8.070;2024-02-28T04:15:36;1.77;;;1.20;;
74342;SDS011;62767;50.300;8.070;2024-02-28T04:18:03;2.72;;;1.60;;
74342;SDS011;62767;50.300;8.070;2024-02-28T04:20:29;2.13;;;1.45;;
74342;SDS011;62767;50.300;8.070;2024-02-28T04:22:54;3.30;;;1.63;;
74342;SDS011;62767;50.300;8.070;2024-02-28T04:25:20;2.08;;;1.38;;
74342;SDS011;62767;50.300;8.070;2024-02-28T04:27:45;2.20;;;1.30;;
74342;SDS011;62767;50.300;8.070;2024-02-28T04:30:12;2.78;;;1.40;;
74342;SDS011;62767;50.300;8.070;2024-02-28T04:32:38;2.42;;;1.38;;
74342;SDS011;62767;50.300;8.070;2024-02-28T04:35:03;1.90;;;1.17;;
74342;SDS011;62767;50.300;8.070;2024-02-28T04:37:29;2.28;;;1.55;;
74342;SDS011;62767;50.300;8.070;2024-02-28T04:39:55;2.83;;;1.50;;
74342;SDS011;62767;50.300;8.070;2024-02-28T04:42:20;1.75;;;1.20;;
74342;SDS011;62767;50.300;8.070;2024-02-28T04:44:46;1.88;;;1.15;;
74342;SDS011;62767;50.300;8.070;2024-02-28T04:47:11;2.13;;;1.38;;
74342;SDS011;62767;50.300;8.070;2024-02-28T04:49:37;1.58;;;1.10;;
74342;SDS011;62767;50.300;8.070;2024-02-28T04:52:06;2.75;;;1.60;;
74342;SDS011;62767;50.300;8.070;2024-02-28T04:54:32;2.30;;;1.30;;
74342;SDS011;62767;50.300;8.070;2024-02-28T04:56:57;2.42;;;1.45;;
74342;SDS011;62767;50.300;8.070;2024-02-28T04:59:23;2.22;;;1.33;;
74342;SDS011;62767;50.300;8.070;2024-02-28T05:01:48;2.10;;;1.40;;
74342;SDS011;62767;50.300;8.070;2024-02-28T05:04:14;2.80;;;1.63;;
74342;SDS011;62767;50.300;8.070;2024-02-28T05:06:39;2.47;;;1.60;;
74342;SDS011;62767;50.300;8.070;2024-02-28T05:09:05;2.65;;;1.35;;
74342;SDS011;62767;50.300;8.070;2024-02-28T05:11:30;2.95;;;1.50;;
74342;SDS011;62767;50.300;8.070;2024-02-28T05:13:56;2.40;;;1.40;;
74342;SDS011;62767;50.300;8.070;2024-02-28T05:16:21;3.38;;;1.60;;
74342;SDS011;62767;50.300;8.070;2024-02-28T05:18:46;3.20;;;1.60;;
74342;SDS011;62767;50.300;8.070;2024-02-28T05:21:12;2.65;;;1.60;;
74342;SDS011;62767;50.300;8.070;2024-02-28T05:23:39;2.58;;;1.60;;
74342;SDS011;62767;50.300;8.070;2024-02-28T05:28:35;2.25;;;1.48;;
74342;SDS011;62767;50.300;8.070;2024-02-28T05:31:10;2.53;;;1.55;;
74342;SDS011;62767;50.300;8.070;2024-02-28T05:33:45;2.70;;;1.70;;
74342;SDS011;62767;50.300;8.070;2024-02-28T05:36:11;2.35;;;1.42;;
74342;SDS011;62767;50.300;8.070;2024-02-28T05:38:36;2.47;;;1.50;;
74342;SDS011;62767;50.300;8.070;2024-02-28T05:41:02;3.00;;;1.70;;
74342;SDS011;62767;50.300;8.070;2024-02-28T05:43:27;2.35;;;1.40;;
74342;SDS011;62767;50.300;8.070;2024-02-28T05:45:53;2.38;;;1.50;;
74342;SDS011;62767;50.300;8.070;2024-02-28T05:48:18;2.50;;;1.70;;
74342;SDS011;62767;50.300;8.070;2024-02-28T05:50:44;3.15;;;1.65;;
74342;SDS011;62767;50.300;8.070;2024-02-28T05:53:09;2.65;;;1.33;;
74342;SDS011;62767;50.300;8.070;2024-02-28T05:55:35;2.65;;;1.52;;
74342;SDS011;62767;50.300;8.070;2024-02-28T05:58:00;1.95;;;1.40;;
74342;SDS011;62767;50.300;8.070;2024-02-28T06:00:26;3.08;;;1.80;;
74342;SDS011;62767;50.300;8.070;2024-02-28T06:02:53;2.75;;;1.70;;
74342;SDS011;62767;50.300;8.070;2024-02-28T06:05:21;3.70;;;1.50;;
74342;SDS011;62767;50.300;8.070;2024-02-28T06:07:46;10.73;;;6.68;;
74342;SDS011;62767;50.300;8.070;2024-02-28T06:10:11;8.80;;;4.80;;
74342;SDS011;62767;50.300;8.070;2024-02-28T06:12:37;8.23;;;5.00;;
74342;SDS011;62767;50.300;8.070;2024-02-28T06:15:03;7.78;;;4.70;;
74342;SDS011;62767;50.300;8.070;2024-02-28T06:19:55;9.38;;;5.40;;
74342;SDS011;62767;50.300;8.070;2024-02-28T06:22:20;9.40;;;5.88;;
74342;SDS011;62767;50.300;8.070;2024-02-28T06:24:46;9.23;;;5.78;;
74342;SDS011;62767;50.300;8.070;2024-02-28T06:27:11;9.23;;;4.90;;
74342;SDS011;62767;50.300;8.070;2024-02-28T06:29:38;10.90;;;5.30;;
74342;SDS011;62767;50.300;8.070;2024-02-28T06:32:05;8.15;;;4.90;;
74342;SDS011;62767;50.300;8.070;2024-02-28T06:34:30;10.07;;;5.10;;
74342;SDS011;62767;50.300;8.070;2024-02-28T06:36:56;12.60;;;4.30;;
74342;SDS011;62767;50.300;8.070;2024-02-28T06:39:22;6.07;;;4.10;;
74342;SDS011;62767;50.300;8.070;2024-02-28T06:41:47;8.35;;;4.45;;
74342;SDS011;62767;50.300;8.070;2024-02-28T06:44:15;7.30;;;4.07;;
74342;SDS011;62767;50.300;8.070;2024-02-28T06:46:41;7.13;;;4.07;;
74342;SDS011;62767;50.300;8.070;2024-02-28T06:49:07;6.13;;;3.50;;
74342;SDS011;62767;50.300;8.070;2024-02-28T06:51:32;6.38;;;3.92;;
74342;SDS011;62767;50.300;8.070;2024-02-28T06:53:57;6.18;;;3.83;;
74342;SDS011;62767;50.300;8.070;2024-02-28T06:56:23;7.43;;;4.10;;
74342;SDS011;62767;50.300;8.070;2024-02-28T06:58:49;5.97;;;3.40;;
74342;SDS011;62767;50.300;8.070;2024-02-28T07:01:14;5.68;;;3.65;;
74342;SDS011;62767;50.300;8.070;2024-02-28T07:03:40;6.30;;;3.63;;
74342;SDS011;62767;50.300;8.070;2024-02-28T07:06:05;6.07;;;3.20;;
74342;SDS011;62767;50.300;8.070;2024-02-28T07:08:31;5.25;;;3.08;;
74342;SDS011;62767;50.300;8.070;2024-02-28T07:10:57;5.20;;;3.03;;
74342;SDS011;62767;50.300;8.070;2024-02-28T07:13:23;5.60;;;3.38;;
74342;SDS011;62767;50.300;8.070;2024-02-28T07:15:49;5.30;;;3.03;;
74342;SDS011;62767;50.300;8.070;2024-02-28T07:18:14;4.85;;;3.05;;
74342;SDS011;62767;50.300;8.070;2024-02-28T07:20:40;5.40;;;3.08;;
74342;SDS011;62767;50.300;8.070;2024-02-28T07:23:05;4.22;;;2.75;;
74342;SDS011;62767;50.300;8.070;2024-02-28T07:25:31;5.60;;;2.70;;
74342;SDS011;62767;50.300;8.070;2024-02-28T07:28:00;6.10;;;3.05;;
74342;SDS011;62767;50.300;8.070;2024-02-28T07:30:26;5.03;;;2.80;;
74342;SDS011;62767;50.300;8.070;2024-02-28T07:32:51;4.68;;;2.85;;
74342;SDS011;62767;50.300;8.070;2024-02-28T07:35:17;7.30;;;3.15;;
74342;SDS011;62767;50.300;8.070;2024-02-28T07:37:44;5.88;;;3.20;;
74342;SDS011;62767;50.300;8.070;2024-02-28T07:40:09;4.85;;;3.08;;
74342;SDS011;62767;50.300;8.070;2024-02-28T07:42:35;5.05;;;2.90;;
74342;SDS011;62767;50.300;8.070;2024-02-28T07:45:00;5.03;;;2.78;;
74342;SDS011;62767;50.300;8.070;2024-02-28T07:47:26;5.07;;;2.88;;
74342;SDS011;62767;50.300;8.070;2024-02-28T07:49:51;4.80;;;2.65;;
74342;SDS011;62767;50.300;8.070;2024-02-28T07:57:09;13.52;;;6.68;;
74342;SDS011;62767;50.300;8.070;2024-02-28T07:59:39;7.78;;;5.03;;
74342;SDS011;62767;50.300;8.070;2024-02-28T08:02:05;9.80;;;4.97;;
74342;SDS011;62767;50.300;8.070;2024-02-28T08:04:31;8.07;;;4.55;;
74342;SDS011;62767;50.300;8.070;2024-02-28T08:06:57;8.73;;;4.53;;
74342;SDS011;62767;50.300;8.070;2024-02-28T08:09:22;9.18;;;5.15;;
74342;SDS011;62767;50.300;8.070;2024-02-28T08:11:48;9.57;;;5.22;;
74342;SDS011;62767;50.300;8.070;2024-02-28T08:14:13;14.30;;;5.55;;
74342;SDS011;62767;50.300;8.070;2024-02-28T08:16:39;9.27;;;4.78;;
74342;SDS011;62767;50.300;8.070;2024-02-28T08:19:04;7.72;;;4.57;;
74342;SDS011;62767;50.300;8.070;2024-02-28T08:21:30;7.70;;;4.63;;
74342;SDS011;62767;50.300;8.070;2024-02-28T08:23:55;8.50;;;4.78;;
74342;SDS011;62767;50.300;8.070;2024-02-28T08:26:22;6.88;;;4.20;;
74342;SDS011;62767;50.300;8.070;2024-02-28T08:28:48;7.32;;;4.18;;
74342;SDS011;62767;50.300;8.070;2024-02-28T08:31:14;6.80;;;4.00;;
74342;SDS011;62767;50.300;8.070;2024-02-28T08:33:40;7.13;;;4.15;;
74342;SDS011;62767;50.300;8.070;2024-02-28T08:36:06;7.53;;;4.40;;
74342;SDS011;62767;50.300;8.070;2024-02-28T08:38:32;7.05;;;4.30;;
74342;SDS011;62767;50.300;8.070;2024-02-28T08:40:57;8.25;;;4.63;;
74342;SDS011;62767;50.300;8.070;2024-02-28T08:43:23;8.02;;;4.72;;
74342;SDS011;62767;50.300;8.070;2024-02-28T08:45:48;9.25;;;4.50;;
74342;SDS011;62767;50.300;8.070;2024-02-28T08:48:16;16.88;;;7.22;;
74342;SDS011;62767;50.300;8.070;2024-02-28T08:50:42;14.73;;;6.25;;
74342;SDS011;62767;50.300;8.070;2024-02-28T08:53:07;10.27;;;5.93;;
74342;SDS011;62767;50.300;8.070;2024-02-28T08:55:33;10.23;;;6.05;;
74342;SDS011;62767;50.300;8.070;2024-02-28T08:57:59;11.68;;;6.15;;
74342;SDS011;62767;50.300;8.070;2024-02-28T09:00:24;11.85;;;5.88;;
74342;SDS011;62767;50.300;8.070;2024-02-28T09:02:50;9.82;;;5.88;;
74342;SDS011;62767;50.300;8.070;2024-02-28T09:05:16;8.07;;;5.18;;
74342;SDS011;62767;50.300;8.070;2024-02-28T09:07:41;8.38;;;5.05;;
74342;SDS011;62767;50.300;8.070;2024-02-28T09:10:07;7.88;;;4.65;;
74342;SDS011;62767;50.300;8.070;2024-02-28T09:12:37;8.18;;;4.75;;
74342;SDS011;62767;50.300;8.070;2024-02-28T09:15:03;8.75;;;4.68;;
74342;SDS011;62767;50.300;8.070;2024-02-28T09:17:29;8.48;;;4.78;;
74342;SDS011;62767;50.300;8.070;2024-02-28T09:19:56;8.18;;;4.38;;
74342;SDS011;62767;50.300;8.070;2024-02-28T09:22:22;7.88;;;4.22;;
74342;SDS011;62767;50.300;8.070;2024-02-28T09:24:49;9.88;;;4.40;;
74342;SDS011;62767;50.300;8.070;2024-02-28T09:27:14;7.15;;;4.10;;
74342;SDS011;62767;50.300;8.070;2024-02-28T09:29:40;7.10;;;4.57;;
74342;SDS011;62767;50.300;8.070;2024-02-28T09:32:05;7.40;;;3.95;;
74342;SDS011;62767;50.300;8.070;2024-02-28T09:34:31;6.53;;;3.92;;
74342;SDS011;62767;50.300;8.070;2024-02-28T09:36:56;7.22;;;3.95;;
74342;SDS011;62767;50.300;8.070;2024-02-28T09:39:22;8.77;;;4.10;;
74342;SDS011;62767;50.300;8.070;2024-02-28T09:41:47;6.25;;;3.90;;
74342;SDS011;62767;50.300;8.070;2024-02-28T09:44:14;8.15;;;3.90;;
74342;SDS011;62767;50.300;8.070;2024-02-28T09:46:41;7.03;;;3.92;;
74342;SDS011;62767;50.300;8.070;2024-02-28T09:49:07;5.60;;;3.80;;
74342;SDS011;62767;50.300;8.070;2024-02-28T09:51:35;6.72;;;4.13;;
74342;SDS011;62767;50.300;8.070;2024-02-28T09:54:01;5.60;;;3.60;;
74342;SDS011;62767;50.300;8.070;2024-02-28T09:56:29;8.10;;;4.10;;
74342;SDS011;62767;50.300;8.070;2024-02-28T09:58:54;6.30;;;4.05;;
74342;SDS011;62767;50.300;8.070;2024-02-28T10:01:21;5.57;;;3.47;;
74342;SDS011;62767;50.300;8.070;2024-02-28T10:03:47;6.05;;;3.28;;
74342;SDS011;62767;50.300;8.070;2024-02-28T10:06:15;7.07;;;3.78;;
74342;SDS011;62767;50.300;8.070;2024-02-28T10:08:41;5.90;;;3.40;;
74342;SDS011;62767;50.300;8.070;2024-02-28T10:11:06;5.90;;;3.50;;
74342;SDS011;62767;50.300;8.070;2024-02-28T10:13:32;6.38;;;3.78;;
74342;SDS011;62767;50.300;8.070;2024-02-28T10:15:57;6.95;;;3.40;;
74342;SDS011;62767;50.300;8.070;2024-02-28T10:18:23;4.93;;;3.08;;
74342;SDS011;62767;50.300;8.070;2024-02-28T10:20:50;5.82;;;3.33;;
74342;SDS011;62767;50.300;8.070;2024-02-28T10:23:16;5.80;;;3.17;;
74342;SDS011;62767;50.300;8.070;2024-02-28T10:25:43;7.82;;;4.15;;
74342;SDS011;62767;50.300;8.070;2024-02-28T10:28:10;4.93;;;3.20;;
74342;SDS011;62767;50.300;8.070;2024-02-28T10:30:42;5.32;;;3.45;;
74342;SDS011;62767;50.300;8.070;2024-02-28T10:35:39;6.28;;;3.83;;
74342;SDS011;62767;50.300;8.070;2024-02-28T10:38:10;5.60;;;3.28;;
74342;SDS011;62767;50.300;8.070;2024-02-28T10:40:37;5.45;;;3.30;;
74342;SDS011;62767;50.300;8.070;2024-02-28T10:43:03;6.50;;;3.28;;
74342;SDS011;62767;50.300;8.070;2024-02-28T10:45:33;6.05;;;3.50;;
74342;SDS011;62767;50.300;8.070;2024-02-28T10:48:01;5.32;;;2.90;;
74342;SDS011;62767;50.300;8.070;2024-02-28T10:50:28;5.70;;;3.47;;
74342;SDS011;62767;50.300;8.070;2024-02-28T10:52:54;5.25;;;3.38;;
74342;SDS011;62767;50.300;8.070;2024-02-28T10:55:28;10.38;;;3.42;;
74342;SDS011;62767;50.300;8.070;2024-02-28T10:58:07;6.20;;;3.20;;
74342;SDS011;62767;50.300;8.070;2024-02-28T11:00:36;6.75;;;3.80;;
74342;SDS011;62767;50.300;8.070;2024-02-28T11:03:11;5.03;;;3.03;;
74342;SDS011;62767;50.300;8.070;2024-02-28T11:05:39;5.55;;;3.03;;
74342;SDS011;62767;50.300;8.070;2024-02-28T11:08:19;5.85;;;3.20;;
74342;SDS011;62767;50.300;8.070;2024-02-28T11:10:55;5.38;;;3.20;;
74342;SDS011;62767;50.300;8.070;2024-02-28T11:13:22;4.97;;;3.05;;
74342;SDS011;62767;50.300;8.070;2024-02-28T11:15:49;5.38;;;3.33;;
74342;SDS011;62767;50.300;8.070;2024-02-28T11:18:14;5.90;;;3.72;;
74342;SDS011;62767;50.300;8.070;2024-02-28T11:20:40;10.50;;;5.70;;
74342;SDS011;62767;50.300;8.070;2024-02-28T11:23:06;9.38;;;5.95;;
74342;SDS011;62767;50.300;8.070;2024-02-28T11:27:57;9.15;;;4.97;;
74342;SDS011;62767;50.300;8.070;2024-02-28T11:30:24;7.65;;;4.57;;
74342;SDS011;62767;50.300;8.070;2024-02-28T11:32:54;8.25;;;4.82;;
74342;SDS011;62767;50.300;8.070;2024-02-28T11:35:20;8.52;;;4.90;;
74342;SDS011;62767;50.300;8.070;2024-02-28T11:37:46;7.88;;;4.78;;
74342;SDS011;62767;50.300;8.070;2024-02-28T11:40:12;10.75;;;4.93;;
74342;SDS011;62767;50.300;8.070;2024-02-28T11:42:38;10.05;;;6.53;;
74342;SDS011;62767;50.300;8.070;2024-02-28T11:45:04;12.15;;;6.38;;
74342;SDS011;62767;50.300;8.070;2024-02-28T11:47:34;15.15;;;6.10;;
74342;SDS011;62767;50.300;8.070;2024-02-28T11:50:01;11.32;;;6.22;;
74342;SDS011;62767;50.300;8.070;2024-02-28T11:52:30;9.38;;;5.28;;
74342;SDS011;62767;50.300;8.070;2024-02-28T11:54:56;13.15;;;6.00;;
74342;SDS011;62767;50.300;8.070;2024-02-28T11:57:21;9.18;;;5.22;;
74342;SDS011;62767;50.300;8.070;2024-02-28T11:59:47;11.63;;;5.85;;
74342;SDS011;62767;50.300;8.070;2024-02-28T12:02:14;9.57;;;5.13;;
74342;SDS011;62767;50.300;8.070;2024-02-28T12:04:44;9.07;;;5.00;;
74342;SDS011;62767;50.300;8.070;2024-02-28T12:07:10;8.95;;;4.63;;
74342;SDS011;62767;50.300;8.070;2024-02-28T12:09:37;9.70;;;4.75;;
74342;SDS011;62767;50.300;8.070;2024-02-28T12:12:04;8.75;;;4.60;;
74342;SDS011;62767;50.300;8.070;2024-02-28T12:14:31;8.27;;;5.05;;
74342;SDS011;62767;50.300;8.070;2024-02-28T12:16:58;9.50;;;5.40;;
74342;SDS011;62767;50.300;8.070;2024-02-28T12:19:24;10.65;;;5.15;;
74342;SDS011;62767;50.300;8.070;2024-02-28T12:21:49;9.55;;;4.47;;
74342;SDS011;62767;50.300;8.070;2024-02-28T12:24:15;8.95;;;4.63;;
74342;SDS011;62767;50.300;8.070;2024-02-28T12:26:41;8.30;;;4.20;;
74342;SDS011;62767;50.300;8.070;2024-02-28T12:29:06;10.13;;;4.55;;
74342;SDS011;62767;50.300;8.070;2024-02-28T12:31:32;11.15;;;4.55;;
74342;SDS011;62767;50.300;8.070;2024-02-28T12:33:58;8.10;;;4.45;;
74342;SDS011;62767;50.300;8.070;2024-02-28T12:36:24;8.02;;;4.32;;
74342;SDS011;62767;50.300;8.070;2024-02-28T12:38:50;9.35;;;4.63;;
74342;SDS011;62767;50.300;8.070;2024-02-28T12:41:16;9.02;;;4.50;;
74342;SDS011;62767;50.300;8.070;2024-02-28T12:43:42;7.03;;;3.95;;
74342;SDS011;62767;50.300;8.070;2024-02-28T12:46:08;7.05;;;3.88;;
74342;SDS011;62767;50.300;8.070;2024-02-28T12:48:37;6.82;;;3.78;;
74342;SDS011;62767;50.300;8.070;2024-02-28T12:51:03;7.30;;;3.78;;
74342;SDS011;62767;50.300;8.070;2024-02-28T12:53:31;7.93;;;3.95;;
74342;SDS011;62767;50.300;8.070;2024-02-28T12:55:56;10.27;;;4.05;;
74342;SDS011;62767;50.300;8.070;2024-02-28T12:58:22;6.22;;;3.85;;
74342;SDS011;62767;50.300;8.070;2024-02-28T13:00:49;5.53;;;3.38;;
74342;SDS011;62767;50.300;8.070;2024-02-28T13:03:14;8.10;;;3.70;;
74342;SDS011;62767;50.300;8.070;2024-02-28T13:05:41;6.55;;;3.95;;
74342;SDS011;62767;50.300;8.070;2024-02-28T13:08:07;6.53;;;3.88;;
74342;SDS011;62767;50.300;8.070;2024-02-28T13:10:32;6.22;;;3.60;;
74342;SDS011;62767;50.300;8.070;2024-02-28T13:13:01;10.88;;;3.75;;
74342;SDS011;62767;50.300;8.070;2024-02-28T13:15:28;6.25;;;3.67;;
74342;SDS011;62767;50.300;8.070;2024-02-28T13:17:53;5.80;;;3.65;;
74342;SDS011;62767;50.300;8.070;2024-02-28T13:20:19;6.30;;;3.75;;
74342;SDS011;62767;50.300;8.070;2024-02-28T13:22:45;6.28;;;3.42;;
74342;SDS011;62767;50.300;8.070;2024-02-28T13:25:13;5.65;;;3.45;;
74342;SDS011;62767;50.300;8.070;2024-02-28T13:27:39;6.45;;;3.72;;
74342;SDS011;62767;50.300;8.070;2024-02-28T13:30:05;5.00;;;3.08;;
74342;SDS011;62767;50.300;8.070;2024-02-28T13:32:31;8.00;;;3.60;;
74342;SDS011;62767;50.300;8.070;2024-02-28T13:34:57;5.30;;;3.15;;
74342;SDS011;62767;50.300;8.070;2024-02-28T13:37:22;5.97;;;3.50;;
74342;SDS011;62767;50.300;8.070;2024-02-28T13:39:48;6.50;;;3.28;;
74342;SDS011;62767;50.300;8.070;2024-02-28T13:42:17;4.97;;;3.35;;
74342;SDS011;62767;50.300;8.070;2024-02-28T13:44:45;5.63;;;3.25;;
74342;SDS011;62767;50.300;8.070;2024-02-28T13:47:12;9.32;;;5.65;;
74342;SDS011;62767;50.300;8.070;2024-02-28T13:49:40;7.88;;;4.95;;
74342;SDS011;62767;50.300;8.070;2024-02-28T13:52:06;7.90;;;4.85;;
74342;SDS011;62767;50.300;8.070;2024-02-28T13:54:32;7.65;;;4.38;;
74342;SDS011;62767;50.300;8.070;2024-02-28T13:56:57;7.13;;;4.43;;
74342;SDS011;62767;50.300;8.070;2024-02-28T13:59:23;7.40;;;4.25;;
74342;SDS011;62767;50.300;8.070;2024-02-28T14:01:49;6.13;;;3.83;;
74342;SDS011;62767;50.300;8.070;2024-02-28T14:04:14;6.20;;;3.97;;
74342;SDS011;62767;50.300;8.070;2024-02-28T14:06:40;7.07;;;4.10;;
74342;SDS011;62767;50.300;8.070;2024-02-28T14:09:05;5.90;;;3.80;;
74342;SDS011;62767;50.300;8.070;2024-02-28T14:11:31;5.97;;;3.65;;
74342;SDS011;62767;50.300;8.070;2024-02-28T14:13:57;5.93;;;3.35;;
74342;SDS011;62767;50.300;8.070;2024-02-28T14:16:24;7.20;;;3.63;;
74342;SDS011;62767;50.300;8.070;2024-02-28T14:18:49;6.13;;;3.58;;
74342;SDS011;62767;50.300;8.070;2024-02-28T14:21:15;5.57;;;3.22;;
74342;SDS011;62767;50.300;8.070;2024-02-28T14:23:40;4.85;;;3.10;;
74342;SDS011;62767;50.300;8.070;2024-02-28T14:26:06;5.10;;;3.00;;
74342;SDS011;62767;50.300;8.070;2024-02-28T14:28:32;5.40;;;3.28;;
74342;SDS011;62767;50.300;8.070;2024-02-28T14:33:24;4.93;;;3.05;;
74342;SDS011;62767;50.300;8.070;2024-02-28T14:35:49;5.47;;;3.15;;
74342;SDS011;62767;50.300;8.070;2024-02-28T14:38:15;5.40;;;3.13;;
74342;SDS011;62767;50.300;8.070;2024-02-28T14:40:40;4.80;;;2.97;;
74342;SDS011;62767;50.300;8.070;2024-02-28T14:43:06;5.25;;;3.20;;
74342;SDS011;62767;50.300;8.070;2024-02-28T14:45:32;4.90;;;2.78;;
74342;SDS011;62767;50.300;8.070;2024-02-28T14:47:58;6.05;;;3.35;;
74342;SDS011;62767;50.300;8.070;2024-02-28T14:50:23;4.95;;;2.83;;
74342;SDS011;62767;50.300;8.070;2024-02-28T14:52:49;5.47;;;2.97;;
74342;SDS011;62767;50.300;8.070;2024-02-28T14:55:14;7.43;;;4.68;;
74342;SDS011;62767;50.300;8.070;2024-02-28T14:57:40;12.80;;;7.43;;